Terminal Aerodrome Forecast
Issued by NWS

Current Version | Previous Version | Text Only | Print | Product List | Glossary On
Versions: 1 2 3 4 5 6 7 8 9 10 11 12 13 14 15 16 17 18 19 20 21 22 23 24 25 26
000
FTUS46 KOTX 240535
TAFMWH
TAF
KMWH 240535Z 2406/2506 17008KT P6SM SCT040 BKN100
     FM241000 16005KT P6SM VCSH BKN050
     FM241300 36005KT 3SM -SN BKN030 OVC060
     FM241800 34010KT P6SM VCSH BKN200=

USA.gov is the U.S. government's official web portal to all federal, state and local government web resources and services.